Xunlong5 — BYGW — position and weather

sailwx.info

Track history (hours):
 
Tides and Currents Weather Stations Pressure Air Temp Water Temp Dewpoint Dewpoint Depression Visibility Wind Speed Wind Dir Waves Ship Positions

Xunlong5

Last reported at 2014-Aug-01 01:33 UTC. Time now 2014-Aug-01 01:49 UTC.
Position N 22°16' E 113°42'.

Length 34 m; draft 1.4 m.

Type: High speed craft. MMSI: 413471870.

Date/timePositionNaut miles runAvg speedWind from/ knotsBaromVisibWave heightAir tempDewpointWater temp
2014-Aug-01 01:33N 22°16' E 113°42'1717.5
2014-Aug-01 00:34N 22°29' E 113°55'0 0.1
2014-Jul-31 23:33N 22°29' E 113°55'0 0.0
2014-Jul-31 22:33N 22°29' E 113°55'0 0.1
2014-Jul-31 21:33N 22°29' E 113°54'0 0.1
2014-Jul-31 20:33N 22°29' E 113°55'0 0.0
2014-Jul-31 19:33N 22°29' E 113°55'0 0.0
2014-Jul-31 18:33N 22°29' E 113°55'0 0.1
2014-Jul-31 17:33N 22°29' E 113°54'0 0.1
2014-Jul-31 16:33N 22°29' E 113°55'0 0.0
2014-Jul-31 15:33N 22°29' E 113°55'0 0.0
2014-Jul-31 14:33N 22°29' E 113°55'0 0.0
2014-Jul-31 13:33N 22°29' E 113°55'0 0.0
2014-Jul-31 12:33N 22°29' E 113°55'0 0.0
2014-Jul-31 11:33N 22°29' E 113°55'0 0.0
2014-Jul-31 10:33N 22°29' E 113°55'0 0.1
2014-Jul-31 09:33N 22°29' E 113°55'1918.7
2014-Jul-31 08:33N 22°14' E 113°42'5 5.4
2014-Jul-31 07:33N 22°11' E 113°37'2424.0
2014-Jul-31 06:33N 22°29' E 113°55'0 0.0
2014-Jul-31 04:33N 22°29' E 113°55'0 0.1
2014-Jul-31 03:33N 22°29' E 113°55'0 0.0
2014-Jul-31 02:33N 22°29' E 113°55'9 8.3
2014-Jul-31 01:28N 22°21' E 113°60'6 6.7
2014-Jul-31 00:33N 22°19' E 114°06'1414.3
2014-Jul-30 23:33N 22°29' E 113°55'0 0.0
2014-Jul-30 22:34N 22°29' E 113°55'0 0.0
2014-Jul-30 21:33N 22°29' E 113°55'0 0.0
2014-Jul-30 20:33N 22°29' E 113°55'0 0.0
2014-Jul-30 19:33N 22°29' E 113°55'0 0.0
2014-Jul-30 18:33N 22°29' E 113°55'0 0.0
2014-Jul-30 17:34N 22°29' E 113°55'0 0.0
2014-Jul-30 16:34N 22°29' E 113°55'0 0.0
2014-Jul-30 15:34N 22°29' E 113°55'0 0.0
2014-Jul-30 14:33N 22°29' E 113°55'7 5.6
2014-Jul-30 13:21N 22°22' E 113°55'7 8.3
2014-Jul-30 12:33N 22°29' E 113°55'1717.3
2014-Jul-30 11:33N 22°16' E 113°42'8 8.4
2014-Jul-30 10:33N 22°11' E 113°35'2625.5
2014-Jul-30 09:33N 22°29' E 113°55'1717.3
2014-Jul-30 08:34N 22°16' E 113°42'5 5.0
2014-Jul-30 07:34N 22°12' E 113°39'2222.1
2014-Jul-30 06:33N 22°29' E 113°55'1211.8
2014-Jul-30 05:33N 22°20' E 113°47'1514.6
2014-Jul-30 04:33N 22°10' E 113°35'1817.7
2014-Jul-30 03:33N 22°21' E 113°49'9 8.8
2014-Jul-30 02:34N 22°29' E 113°55'1410.8
2014-Jul-30 01:14N 22°19' E 114°06'0 0.5
2014-Jul-30 00:33N 22°19' E 114°06'1414.5
2014-Jul-29 23:33N 22°29' E 113°55'0 0.0
2014-Jul-29 22:33N 22°29' E 113°55'0 0.0
2014-Jul-29 21:33N 22°29' E 113°55'0 0.0
2014-Jul-29 20:33N 22°29' E 113°55'0 0.0
2014-Jul-29 19:33N 22°29' E 113°55'0 0.0
2014-Jul-29 18:33N 22°29' E 113°55'0 0.0
2014-Jul-29 17:33N 22°29' E 113°55'0 0.0
2014-Jul-29 16:33N 22°29' E 113°55'0 0.0
2014-Jul-29 15:33N 22°29' E 113°55'0 0.0
2014-Jul-29 14:33N 22°29' E 113°55'0 0.0
2014-Jul-29 13:33N 22°29' E 113°55'0 0.0
2014-Jul-29 12:33N 22°29' E 113°55'0 0.0
2014-Jul-29 11:33N 22°29' E 113°55'0 0.0
2014-Jul-29 10:33N 22°29' E 113°55'0 0.0
2014-Jul-29 09:33N 22°29' E 113°55'1818.1
2014-Jul-29 08:33N 22°15' E 113°42'3 3.5
2014-Jul-29 07:33N 22°13' E 113°39'2221.6
2014-Jul-29 06:34N 22°29' E 113°55'10 9.9
2014-Jul-29 05:33N 22°21' E 113°48'1616.3
2014-Jul-29 04:33N 22°10' E 113°35'2323.6
2014-Jul-29 03:33N 22°26' E 113°53'9 9.1
2014-Jul-29 02:33N 22°20' E 113°46'1413.4
2014-Jul-29 01:31N 22°12' E 113°34'2121.4
2014-Jul-29 00:33N 22°29' E 113°47'6 0.5
2014-Jul-28 12:13N 22°35' E 113°48'1929.0
2014-Jul-28 11:33N 22°17' E 113°42'9 9.0
2014-Jul-28 10:33N 22°10' E 113°35'2726.7
2014-Jul-28 09:33N 22°34' E 113°48'1313.0
2014-Jul-28 08:33N 22°22' E 113°44'1413.7
2014-Jul-28 07:33N 22°12' E 113°34'2625.8
2014-Jul-28 06:33N 22°34' E 113°48'1514.9
2014-Jul-28 05:33N 22°20' E 113°43'1211.9
2014-Jul-28 04:33N 22°12' E 113°34'2020.0
2014-Jul-28 03:33N 22°28' E 113°46'4 3.7
2014-Jul-28 02:33N 22°25' E 113°45'1616.5
2014-Jul-28 01:33N 22°12' E 113°34'2222.3
2014-Jul-28 00:33N 22°30' E 113°47'3 0.2
2014-Jul-27 12:15N 22°33' E 113°48'1927.1
2014-Jul-27 11:33N 22°15' E 113°42'3 2.7
2014-Jul-27 10:33N 22°13' E 113°40'1812.9
2014-Jul-27 09:09N 22°30' E 113°47'1424.7
2014-Jul-27 08:33N 22°17' E 113°42'9 8.8
2014-Jul-27 07:33N 22°12' E 113°34'2424.0
2014-Jul-27 06:33N 22°32' E 113°47'1110.7
2014-Jul-27 05:33N 22°22' E 113°44'1413.8
2014-Jul-27 04:33N 22°11' E 113°34'2424.4
2014-Jul-27 03:33N 22°32' E 113°48'1312.8
2014-Jul-27 02:33N 22°20' E 113°43'1212.0
2014-Jul-27 01:33N 22°12' E 113°34'2222.6
2014-Jul-27 00:33N 22°31' E 113°47'1 0.1
2014-Jul-26 12:04N 22°32' E 113°47'1528.8
2014-Jul-26 11:33N 22°18' E 113°42'1010.2
2014-Jul-26 10:33N 22°10' E 113°35'2222.1
2014-Jul-26 09:33N 22°29' E 113°47'5 5.0
2014-Jul-26 08:34N 22°25' E 113°44'1616.2
2014-Jul-26 07:33N 22°12' E 113°34'2121.1
2014-Jul-26 06:34N 22°29' E 113°47'6 5.8
2014-Jul-26 05:33N 22°24' E 113°44'1515.4
2014-Jul-26 04:33N 22°12' E 113°34'1717.1
2014-Jul-26 03:33N 22°25' E 113°45'1 1.5
2014-Jul-26 02:33N 22°27' E 113°45'1818.5
2014-Jul-26 01:33N 22°12' E 113°34'2019.9
2014-Jul-26 00:33N 22°28' E 113°46'7 0.6
2014-Jul-25 12:09N 22°35' E 113°48'1729.1
2014-Jul-25 11:33N 22°18' E 113°42'1110.8
2014-Jul-25 10:33N 22°10' E 113°35'2423.9
2014-Jul-25 09:33N 22°31' E 113°47'5 5.2
2014-Jul-25 08:33N 22°26' E 113°45'1817.7
2014-Jul-25 07:33N 22°12' E 113°34'1818.3
2014-Jul-25 06:33N 22°26' E 113°45'1 0.8
2014-Jul-25 05:33N 22°26' E 113°45'1817.6
2014-Jul-25 04:33N 22°12' E 113°34'2121.5
2014-Jul-25 03:33N 22°29' E 113°47'8 7.9
2014-Jul-25 02:34N 22°22' E 113°44'1413.5
2014-Jul-25 01:31N 22°12' E 113°34'2222.8
2014-Jul-25 00:33N 22°30' E 113°47'6 0.7
2014-Jul-24 15:09N 22°36' E 113°49'2 0.7
2014-Jul-24 12:04N 22°34' E 113°48'1527.7
2014-Jul-24 11:32N 22°20' E 113°43'1312.9
2014-Jul-24 10:33N 22°10' E 113°35'2423.7
2014-Jul-24 09:33N 22°31' E 113°47'4 4.0
2014-Jul-24 08:33N 22°27' E 113°46'1919.0
2014-Jul-24 07:33N 22°12' E 113°34'2120.6
2014-Jul-24 06:33N 22°29' E 113°47'5 4.8
2014-Jul-24 05:33N 22°24' E 113°44'1615.8
2014-Jul-24 04:33N 22°12' E 113°34'2019.6
2014-Jul-24 03:33N 22°28' E 113°46'3 2.7
2014-Jul-24 02:33N 22°25' E 113°45'1717.1
2014-Jul-24 01:33N 22°12' E 113°34'1919.4
2014-Jul-24 00:33N 22°27' E 113°46'7 0.6
2014-Jul-23 12:08N 22°34' E 113°48'1628.9
2014-Jul-23 11:34N 22°19' E 113°42'1111.2
2014-Jul-23 10:33N 22°10' E 113°35'2222.0
2014-Jul-23 09:33N 22°29' E 113°47'3 2.7
2014-Jul-23 08:34N 22°26' E 113°46'1817.9
2014-Jul-23 07:33N 22°12' E 113°34'1919.4
2014-Jul-23 06:34N 22°27' E 113°46'2 2.1
2014-Jul-23 05:33N 22°25' E 113°45'1717.2
2014-Jul-23 04:33N 22°12' E 113°34'2120.8
2014-Jul-23 03:33N 22°29' E 113°47'4 4.3
2014-Jul-23 02:33N 22°25' E 113°45'1716.6
2014-Jul-23 01:33N 22°12' E 113°34'1919.5
2014-Jul-23 00:33N 22°28' E 113°46'6 0.5
2014-Jul-22 11:33N 22°22' E 113°44'1514.6
2014-Jul-22 10:33N 22°10' E 113°35'2322.6
2014-Jul-22 09:33N 22°29' E 113°47'2 1.8
2014-Jul-22 08:33N 22°28' E 113°46'2020.0
2014-Jul-22 07:33N 22°12' E 113°34'1918.8
2014-Jul-22 06:33N 22°27' E 113°46'1 0.9
2014-Jul-22 05:33N 22°26' E 113°45'1817.9
2014-Jul-22 04:33N 22°12' E 113°34'1716.7
2014-Jul-22 03:33N 22°25' E 113°45'2 1.8
2014-Jul-22 02:33N 22°26' E 113°46'  
Track history (hours):
 
Tides and Currents Weather Stations Pressure Air Temp Water Temp Dewpoint Dewpoint Depression Visibility Wind Speed Wind Dir Waves Ship Positions

Xunlong5

Last reported at 2014-Aug-01 01:33 UTC. Time now 2014-Aug-01 01:49 UTC.
Position N 22°16' E 113°42'.

Length 34 m; draft 1.4 m.

Type: High speed craft. MMSI: 413471870.

Date/timePositionNaut miles runAvg speedWind from/ knotsBaromVisibWave heightAir tempDewpointWater temp
2014-Aug-01 01:33N 22°16' E 113°42'1717.5
2014-Aug-01 00:34N 22°29' E 113°55'0 0.1
2014-Jul-31 23:33N 22°29' E 113°55'0 0.0
2014-Jul-31 22:33N 22°29' E 113°55'0 0.1
2014-Jul-31 21:33N 22°29' E 113°54'0 0.1
2014-Jul-31 20:33N 22°29' E 113°55'0 0.0
2014-Jul-31 19:33N 22°29' E 113°55'0 0.0
2014-Jul-31 18:33N 22°29' E 113°55'0 0.1
2014-Jul-31 17:33N 22°29' E 113°54'0 0.1
2014-Jul-31 16:33N 22°29' E 113°55'0 0.0
2014-Jul-31 15:33N 22°29' E 113°55'0 0.0
2014-Jul-31 14:33N 22°29' E 113°55'0 0.0
2014-Jul-31 13:33N 22°29' E 113°55'0 0.0
2014-Jul-31 12:33N 22°29' E 113°55'0 0.0
2014-Jul-31 11:33N 22°29' E 113°55'0 0.0
2014-Jul-31 10:33N 22°29' E 113°55'0 0.1
2014-Jul-31 09:33N 22°29' E 113°55'1918.7
2014-Jul-31 08:33N 22°14' E 113°42'5 5.4
2014-Jul-31 07:33N 22°11' E 113°37'2424.0
2014-Jul-31 06:33N 22°29' E 113°55'0 0.0
2014-Jul-31 04:33N 22°29' E 113°55'0 0.1
2014-Jul-31 03:33N 22°29' E 113°55'0 0.0
2014-Jul-31 02:33N 22°29' E 113°55'9 8.3
2014-Jul-31 01:28N 22°21' E 113°60'6 6.7
2014-Jul-31 00:33N 22°19' E 114°06'1414.3
2014-Jul-30 23:33N 22°29' E 113°55'0 0.0
2014-Jul-30 22:34N 22°29' E 113°55'0 0.0
2014-Jul-30 21:33N 22°29' E 113°55'0 0.0
2014-Jul-30 20:33N 22°29' E 113°55'0 0.0
2014-Jul-30 19:33N 22°29' E 113°55'0 0.0
2014-Jul-30 18:33N 22°29' E 113°55'0 0.0
2014-Jul-30 17:34N 22°29' E 113°55'0 0.0
2014-Jul-30 16:34N 22°29' E 113°55'0 0.0
2014-Jul-30 15:34N 22°29' E 113°55'0 0.0
2014-Jul-30 14:33N 22°29' E 113°55'7 5.6
2014-Jul-30 13:21N 22°22' E 113°55'7 8.3
2014-Jul-30 12:33N 22°29' E 113°55'1717.3
2014-Jul-30 11:33N 22°16' E 113°42'8 8.4
2014-Jul-30 10:33N 22°11' E 113°35'2625.5
2014-Jul-30 09:33N 22°29' E 113°55'1717.3
2014-Jul-30 08:34N 22°16' E 113°42'5 5.0
2014-Jul-30 07:34N 22°12' E 113°39'2222.1
2014-Jul-30 06:33N 22°29' E 113°55'1211.8
2014-Jul-30 05:33N 22°20' E 113°47'1514.6
2014-Jul-30 04:33N 22°10' E 113°35'1817.7
2014-Jul-30 03:33N 22°21' E 113°49'9 8.8
2014-Jul-30 02:34N 22°29' E 113°55'1410.8
2014-Jul-30 01:14N 22°19' E 114°06'0 0.5
2014-Jul-30 00:33N 22°19' E 114°06'1414.5
2014-Jul-29 23:33N 22°29' E 113°55'0 0.0
2014-Jul-29 22:33N 22°29' E 113°55'0 0.0
2014-Jul-29 21:33N 22°29' E 113°55'0 0.0
2014-Jul-29 20:33N 22°29' E 113°55'0 0.0
2014-Jul-29 19:33N 22°29' E 113°55'0 0.0
2014-Jul-29 18:33N 22°29' E 113°55'0 0.0
2014-Jul-29 17:33N 22°29' E 113°55'0 0.0
2014-Jul-29 16:33N 22°29' E 113°55'0 0.0
2014-Jul-29 15:33N 22°29' E 113°55'0 0.0
2014-Jul-29 14:33N 22°29' E 113°55'0 0.0
2014-Jul-29 13:33N 22°29' E 113°55'0 0.0
2014-Jul-29 12:33N 22°29' E 113°55'0 0.0
2014-Jul-29 11:33N 22°29' E 113°55'0 0.0
2014-Jul-29 10:33N 22°29' E 113°55'0 0.0
2014-Jul-29 09:33N 22°29' E 113°55'1818.1
2014-Jul-29 08:33N 22°15' E 113°42'3 3.5
2014-Jul-29 07:33N 22°13' E 113°39'2221.6
2014-Jul-29 06:34N 22°29' E 113°55'10 9.9
2014-Jul-29 05:33N 22°21' E 113°48'1616.3
2014-Jul-29 04:33N 22°10' E 113°35'2323.6
2014-Jul-29 03:33N 22°26' E 113°53'9 9.1
2014-Jul-29 02:33N 22°20' E 113°46'1413.4
2014-Jul-29 01:31N 22°12' E 113°34'2121.4
2014-Jul-29 00:33N 22°29' E 113°47'6 0.5
2014-Jul-28 12:13N 22°35' E 113°48'1929.0
2014-Jul-28 11:33N 22°17' E 113°42'9 9.0
2014-Jul-28 10:33N 22°10' E 113°35'2726.7
2014-Jul-28 09:33N 22°34' E 113°48'1313.0
2014-Jul-28 08:33N 22°22' E 113°44'1413.7
2014-Jul-28 07:33N 22°12' E 113°34'2625.8
2014-Jul-28 06:33N 22°34' E 113°48'1514.9
2014-Jul-28 05:33N 22°20' E 113°43'1211.9
2014-Jul-28 04:33N 22°12' E 113°34'2020.0
2014-Jul-28 03:33N 22°28' E 113°46'4 3.7
2014-Jul-28 02:33N 22°25' E 113°45'1616.5
2014-Jul-28 01:33N 22°12' E 113°34'2222.3
2014-Jul-28 00:33N 22°30' E 113°47'3 0.2
2014-Jul-27 12:15N 22°33' E 113°48'1927.1
2014-Jul-27 11:33N 22°15' E 113°42'3 2.7
2014-Jul-27 10:33N 22°13' E 113°40'1812.9
2014-Jul-27 09:09N 22°30' E 113°47'1424.7
2014-Jul-27 08:33N 22°17' E 113°42'9 8.8
2014-Jul-27 07:33N 22°12' E 113°34'2424.0
2014-Jul-27 06:33N 22°32' E 113°47'1110.7
2014-Jul-27 05:33N 22°22' E 113°44'1413.8
2014-Jul-27 04:33N 22°11' E 113°34'2424.4
2014-Jul-27 03:33N 22°32' E 113°48'1312.8
2014-Jul-27 02:33N 22°20' E 113°43'1212.0
2014-Jul-27 01:33N 22°12' E 113°34'2222.6
2014-Jul-27 00:33N 22°31' E 113°47'1 0.1
2014-Jul-26 12:04N 22°32' E 113°47'1528.8
2014-Jul-26 11:33N 22°18' E 113°42'1010.2
2014-Jul-26 10:33N 22°10' E 113°35'2222.1
2014-Jul-26 09:33N 22°29' E 113°47'5 5.0
2014-Jul-26 08:34N 22°25' E 113°44'1616.2
2014-Jul-26 07:33N 22°12' E 113°34'2121.1
2014-Jul-26 06:34N 22°29' E 113°47'6 5.8
2014-Jul-26 05:33N 22°24' E 113°44'1515.4
2014-Jul-26 04:33N 22°12' E 113°34'1717.1
2014-Jul-26 03:33N 22°25' E 113°45'1 1.5
2014-Jul-26 02:33N 22°27' E 113°45'1818.5
2014-Jul-26 01:33N 22°12' E 113°34'2019.9
2014-Jul-26 00:33N 22°28' E 113°46'7 0.6
2014-Jul-25 12:09N 22°35' E 113°48'1729.1
2014-Jul-25 11:33N 22°18' E 113°42'1110.8
2014-Jul-25 10:33N 22°10' E 113°35'2423.9
2014-Jul-25 09:33N 22°31' E 113°47'5 5.2
2014-Jul-25 08:33N 22°26' E 113°45'1817.7
2014-Jul-25 07:33N 22°12' E 113°34'1818.3
2014-Jul-25 06:33N 22°26' E 113°45'1 0.8
2014-Jul-25 05:33N 22°26' E 113°45'1817.6
2014-Jul-25 04:33N 22°12' E 113°34'2121.5
2014-Jul-25 03:33N 22°29' E 113°47'8 7.9
2014-Jul-25 02:34N 22°22' E 113°44'1413.5
2014-Jul-25 01:31N 22°12' E 113°34'2222.8
2014-Jul-25 00:33N 22°30' E 113°47'6 0.7
2014-Jul-24 15:09N 22°36' E 113°49'2 0.7
2014-Jul-24 12:04N 22°34' E 113°48'1527.7
2014-Jul-24 11:32N 22°20' E 113°43'1312.9
2014-Jul-24 10:33N 22°10' E 113°35'2423.7
2014-Jul-24 09:33N 22°31' E 113°47'4 4.0
2014-Jul-24 08:33N 22°27' E 113°46'1919.0
2014-Jul-24 07:33N 22°12' E 113°34'2120.6
2014-Jul-24 06:33N 22°29' E 113°47'5 4.8
2014-Jul-24 05:33N 22°24' E 113°44'1615.8
2014-Jul-24 04:33N 22°12' E 113°34'2019.6
2014-Jul-24 03:33N 22°28' E 113°46'3 2.7
2014-Jul-24 02:33N 22°25' E 113°45'1717.1
2014-Jul-24 01:33N 22°12' E 113°34'1919.4
2014-Jul-24 00:33N 22°27' E 113°46'7 0.6
2014-Jul-23 12:08N 22°34' E 113°48'1628.9
2014-Jul-23 11:34N 22°19' E 113°42'1111.2
2014-Jul-23 10:33N 22°10' E 113°35'2222.0
2014-Jul-23 09:33N 22°29' E 113°47'3 2.7
2014-Jul-23 08:34N 22°26' E 113°46'1817.9
2014-Jul-23 07:33N 22°12' E 113°34'1919.4
2014-Jul-23 06:34N 22°27' E 113°46'2 2.1
2014-Jul-23 05:33N 22°25' E 113°45'1717.2
2014-Jul-23 04:33N 22°12' E 113°34'2120.8
2014-Jul-23 03:33N 22°29' E 113°47'4 4.3
2014-Jul-23 02:33N 22°25' E 113°45'1716.6
2014-Jul-23 01:33N 22°12' E 113°34'1919.5
2014-Jul-23 00:33N 22°28' E 113°46'6 0.5
2014-Jul-22 11:33N 22°22' E 113°44'1514.6
2014-Jul-22 10:33N 22°10' E 113°35'2322.6
2014-Jul-22 09:33N 22°29' E 113°47'2 1.8
2014-Jul-22 08:33N 22°28' E 113°46'2020.0
2014-Jul-22 07:33N 22°12' E 113°34'1918.8
2014-Jul-22 06:33N 22°27' E 113°46'1 0.9
2014-Jul-22 05:33N 22°26' E 113°45'1817.9
2014-Jul-22 04:33N 22°12' E 113°34'1716.7
2014-Jul-22 03:33N 22°25' E 113°45'2 1.8
2014-Jul-22 02:33N 22°26' E 113°46'  

Dump ship's entire track history